Big Bear Station Historical Data
Daily Summary for February 15, 2019 Units:  Both    English   Metric
Next Day »
Daily Weekly Monthly Yearly Custom
  High: Low: Average:
Temperature: 35.2 °F /  1.8 °C 26.8 °F /  -2.9 °C 30.6 °F /  -0.8 °C
Dew Point: 30.3 °F /  -0.9 °C 20.1 °F /  -6.6 °C 28.1 °F /  -2.2 °C
Humidity: 97% 75% 90%
Wind Speed: 9.9mph /  15.9km/h - 3.3mph /  5.3km/h
Wind Gust: -999.0mph /  -1607.7km/h - -
Wind- - SW
Pressure: 23.42 in /  793 hPa 23.32 in /  789.6 hPa -
Precipitation: 0.01 in /  0.25 mm    
Historical Graphs
 
 
Tabular Data for February 15, 2019
Time Temperature Dew Point Pressure Wind Wind Speed Wind Gust Humidity Rainfall Rate (Hourly)
06:52 27.0 °F /  -2.8 °C 20.1 °F /  -6.6 °C 23.39in /  792hPa NW 4.2mph /  6.8km/h -999.0mph /  -1607.7km/h 75% 0.00in /  0mm
07:07 27.0 °F /  -2.8 °C 21.7 °F /  -5.7 °C 23.39in /  792hPa Calm   -999.0mph /  -1607.7km/h 80% 0.00in /  0mm
07:23 27.1 °F /  -2.7 °C 23.2 °F /  -4.9 °C 23.40in /  792.3hPa NW 2.7mph /  4.3km/h -999.0mph /  -1607.7km/h 85% 0.00in /  0mm
07:38 27.9 °F /  -2.3 °C 25.1 °F /  -3.8 °C 23.39in /  792hPa NW 1.7mph /  2.7km/h -999.0mph /  -1607.7km/h 89% 0.00in /  0mm
07:53 28.6 °F /  -1.9 °C 26.0 °F /  -3.3 °C 23.40in /  792.3hPa NW 1.7mph /  2.7km/h -999.0mph /  -1607.7km/h 90% 0.00in /  0mm
08:08 29.1 °F /  -1.6 °C 26.5 °F /  -3.1 °C 23.40in /  792.3hPa NW 1.7mph /  2.7km/h -999.0mph /  -1607.7km/h 90% 0.00in /  0mm
08:23 29.5 °F /  -1.4 °C 26.7 °F /  -2.9 °C 23.40in /  792.3hPa NW 1.7mph /  2.7km/h -999.0mph /  -1607.7km/h 89% 0.00in /  0mm
08:39 30.0 °F /  -1.1 °C 27.2 °F /  -2.7 °C 23.41in /  792.7hPa NW 4.7mph /  7.6km/h -999.0mph /  -1607.7km/h 89% 0.00in /  0mm
08:54 30.0 °F /  -1.1 °C 27.4 °F /  -2.6 °C 23.42in /  793hPa WNW 4.2mph /  6.8km/h -999.0mph /  -1607.7km/h 90% 0.00in /  0mm
09:10 30.2 °F /  -1 °C 27.6 °F /  -2.4 °C 23.41in /  792.7hPa WNW 3.7mph /  6km/h -999.0mph /  -1607.7km/h 90% 0.00in /  0mm
09:25 29.8 °F /  -1.2 °C 27.5 °F /  -2.5 °C 23.41in /  792.7hPa NW 6.8mph /  10.9km/h -999.0mph /  -1607.7km/h 91% 0.00in /  0mm
09:41 30.2 °F /  -1 °C 27.4 °F /  -2.6 °C 23.42in /  793hPa NW 2.7mph /  4.3km/h -999.0mph /  -1607.7km/h 89% 0.00in /  0mm
09:56 31.6 °F /  -0.2 °C 27.9 °F /  -2.3 °C 23.42in /  793hPa NNE 5.3mph /  8.5km/h -999.0mph /  -1607.7km/h 86% 0.00in /  0mm
10:11 33.3 °F /  0.7 °C 29.0 °F /  -1.7 °C 23.42in /  793hPa WNW 1.1mph /  1.8km/h -999.0mph /  -1607.7km/h 84% 0.00in /  0mm
10:26 33.1 °F /  0.6 °C 28.8 °F /  -1.8 °C 23.42in /  793hPa West 1.7mph /  2.7km/h -999.0mph /  -1607.7km/h 84% 0.00in /  0mm
10:42 33.3 °F /  0.7 °C 29.6 °F /  -1.3 °C 23.41in /  792.7hPa NNE 4.2mph /  6.8km/h -999.0mph /  -1607.7km/h 86% 0.00in /  0mm
10:57 33.4 °F /  0.8 °C 30.2 °F /  -1 °C 23.42in /  793hPa NW 4.7mph /  7.6km/h -999.0mph /  -1607.7km/h 88% 0.00in /  0mm
11:12 34.2 °F /  1.2 °C 29.9 °F /  -1.2 °C 23.42in /  793hPa NW 2.7mph /  4.3km/h -999.0mph /  -1607.7km/h 84% 0.00in /  0mm
11:27 35.2 °F /  1.8 °C 30.3 °F /  -0.9 °C 23.42in /  793hPa NW 4.7mph /  7.6km/h -999.0mph /  -1607.7km/h 82% 0.00in /  0mm
11:42 33.6 °F /  0.9 °C 29.0 °F /  -1.7 °C 23.42in /  793hPa SW 3.2mph /  5.1km/h -999.0mph /  -1607.7km/h 83% 0.00in /  0mm
11:58 34.5 °F /  1.4 °C 29.9 °F /  -1.2 °C 23.42in /  793hPa WNW 2.7mph /  4.3km/h -999.0mph /  -1607.7km/h 83% 0.00in /  0mm
12:13 34.5 °F /  1.4 °C 29.9 °F /  -1.2 °C 23.42in /  793hPa WNW 5.8mph /  9.3km/h -999.0mph /  -1607.7km/h 83% 0.00in /  0mm
12:28 33.6 °F /  0.9 °C 29.6 °F /  -1.3 °C 23.41in /  792.7hPa WSW 2.7mph /  4.3km/h -999.0mph /  -1607.7km/h 85% 0.00in /  0mm
12:44 33.4 °F /  0.8 °C 29.4 °F /  -1.4 °C 23.42in /  793hPa ENE 1.1mph /  1.8km/h -999.0mph /  -1607.7km/h 85% 0.00in /  0mm
12:59 33.1 °F /  0.6 °C 29.1 °F /  -1.6 °C 23.41in /  792.7hPa NNW 2.7mph /  4.3km/h -999.0mph /  -1607.7km/h 85% 0.00in /  0mm
13:14 34.2 °F /  1.2 °C 29.9 °F /  -1.2 °C 23.40in /  792.3hPa WSW 4.7mph /  7.6km/h -999.0mph /  -1607.7km/h 84% 0.00in /  0mm
13:30 33.3 °F /  0.7 °C 29.9 °F /  -1.2 °C 23.40in /  792.3hPa WSW 2.7mph /  4.3km/h -999.0mph /  -1607.7km/h 87% 0.00in /  0mm
13:46 33.1 °F /  0.6 °C 29.7 °F /  -1.3 °C 23.40in /  792.3hPa NW 3.7mph /  6km/h -999.0mph /  -1607.7km/h 87% 0.00in /  0mm
14:01 32.0 °F /  0 °C 29.1 °F /  -1.6 °C 23.40in /  792.3hPa WNW 1.7mph /  2.7km/h -999.0mph /  -1607.7km/h 89% 0.00in /  0mm
14:16 31.6 °F /  -0.2 °C 29.3 °F /  -1.5 °C 23.39in /  792hPa NE 4.7mph /  7.6km/h -999.0mph /  -1607.7km/h 91% 0.00in /  0mm
14:31 33.3 °F /  0.7 °C 29.6 °F /  -1.3 °C 23.39in /  792hPa Calm   -999.0mph /  -1607.7km/h 86% 0.00in /  0mm
14:46 33.6 °F /  0.9 °C 28.7 °F /  -1.8 °C 23.38in /  791.6hPa North 4.7mph /  7.6km/h -999.0mph /  -1607.7km/h 82% 0.00in /  0mm
15:02 32.7 °F /  0.4 °C 29.0 °F /  -1.7 °C 23.39in /  792hPa WNW 4.2mph /  6.8km/h -999.0mph /  -1607.7km/h 86% 0.00in /  0mm
15:17 32.4 °F /  0.2 °C 29.0 °F /  -1.7 °C 23.38in /  791.6hPa ESE 1.1mph /  1.8km/h -999.0mph /  -1607.7km/h 87% 0.00in /  0mm
15:35 32.4 °F /  0.2 °C 29.0 °F /  -1.7 °C 23.38in /  791.6hPa NNE 2.7mph /  4.3km/h -999.0mph /  -1607.7km/h 87% 0.00in /  0mm
15:50 32.5 °F /  0.3 °C 29.1 °F /  -1.6 °C 23.38in /  791.6hPa NE 1.7mph /  2.7km/h -999.0mph /  -1607.7km/h 87% 0.00in /  0mm
16:05 32.7 °F /  0.4 °C 29.0 °F /  -1.7 °C 23.37in /  791.3hPa WNW 6.8mph /  10.9km/h -999.0mph /  -1607.7km/h 86% 0.00in /  0mm
16:21 31.6 °F /  -0.2 °C 28.7 °F /  -1.8 °C 23.37in /  791.3hPa ESE 2.7mph /  4.3km/h -999.0mph /  -1607.7km/h 89% 0.00in /  0mm
16:38 30.6 °F /  -0.8 °C 28.3 °F /  -2.1 °C 23.37in /  791.3hPa Calm   -999.0mph /  -1607.7km/h 91% 0.00in /  0mm
16:53 29.7 °F /  -1.3 °C 28.4 °F /  -2 °C 23.37in /  791.3hPa ENE 3.2mph /  5.1km/h -999.0mph /  -1607.7km/h 95% 0.00in /  0mm
17:08 29.7 °F /  -1.3 °C 28.4 °F /  -2 °C 23.36in /  791hPa SW 3.2mph /  5.1km/h -999.0mph /  -1607.7km/h 95% 0.00in /  0mm
17:24 29.8 °F /  -1.2 °C 28.5 °F /  -1.9 °C 23.36in /  791hPa NNW 1.7mph /  2.7km/h -999.0mph /  -1607.7km/h 95% 0.00in /  0mm
17:40 29.7 °F /  -1.3 °C 28.4 °F /  -2 °C 23.35in /  790.6hPa Calm   -999.0mph /  -1607.7km/h 95% 0.00in /  0mm
17:55 29.7 °F /  -1.3 °C 28.4 °F /  -2 °C 23.36in /  791hPa NW 2.7mph /  4.3km/h -999.0mph /  -1607.7km/h 95% 0.00in /  0mm
18:10 29.7 °F /  -1.3 °C 28.4 °F /  -2 °C 23.36in /  791hPa ESE 5.3mph /  8.5km/h -999.0mph /  -1607.7km/h 95% 0.00in /  0mm
18:25 29.3 °F /  -1.5 °C 28.6 °F /  -1.9 °C 23.35in /  790.6hPa East 2.7mph /  4.3km/h -999.0mph /  -1607.7km/h 97% 0.00in /  0mm
18:40 29.5 °F /  -1.4 °C 28.8 °F /  -1.8 °C 23.35in /  790.6hPa East 1.1mph /  1.8km/h -999.0mph /  -1607.7km/h 97% 0.00in /  0mm
18:56 29.7 °F /  -1.3 °C 29.0 °F /  -1.7 °C 23.35in /  790.6hPa Calm   -999.0mph /  -1607.7km/h 97% 0.00in /  0mm
19:11 29.7 °F /  -1.3 °C 28.7 °F /  -1.8 °C 23.35in /  790.6hPa SE 2.2mph /  3.5km/h -999.0mph /  -1607.7km/h 96% 0.00in /  0mm
19:26 29.7 °F /  -1.3 °C 28.7 °F /  -1.8 °C 23.35in /  790.6hPa ESE 3.7mph /  6km/h -999.0mph /  -1607.7km/h 96% 0.00in /  0mm
19:41 29.5 °F /  -1.4 °C 28.5 °F /  -1.9 °C 23.33in /  790hPa NW 1.7mph /  2.7km/h -999.0mph /  -1607.7km/h 96% 0.00in /  0mm
19:57 29.5 °F /  -1.4 °C 28.5 °F /  -1.9 °C 23.33in /  790hPa Calm   -999.0mph /  -1607.7km/h 96% 0.00in /  0mm
20:12 29.5 °F /  -1.4 °C 28.5 °F /  -1.9 °C 23.32in /  789.6hPa Calm   -999.0mph /  -1607.7km/h 96% 0.00in /  0mm
20:28 29.5 °F /  -1.4 °C 28.5 °F /  -1.9 °C 23.32in /  789.6hPa South 2.7mph /  4.3km/h -999.0mph /  -1607.7km/h 96% 0.00in /  0mm
20:43 29.3 °F /  -1.5 °C 28.3 °F /  -2.1 °C 23.32in /  789.6hPa SSW 3.2mph /  5.1km/h -999.0mph /  -1607.7km/h 96% 0.00in /  0mm
20:58 29.5 °F /  -1.4 °C 28.5 °F /  -1.9 °C 23.32in /  789.6hPa NE 2.7mph /  4.3km/h -999.0mph /  -1607.7km/h 96% 0.00in /  0mm
21:13 29.5 °F /  -1.4 °C 28.5 °F /  -1.9 °C 23.32in /  789.6hPa ESE 2.7mph /  4.3km/h -999.0mph /  -1607.7km/h 96% 0.00in /  0mm
21:28 29.7 °F /  -1.3 °C 28.7 °F /  -1.8 °C 23.34in /  790.3hPa NE 4.7mph /  7.6km/h -999.0mph /  -1607.7km/h 96% 0.00in /  0mm
21:44 29.3 °F /  -1.5 °C 28.3 °F /  -2.1 °C 23.34in /  790.3hPa South 5.8mph /  9.3km/h -999.0mph /  -1607.7km/h 96% 0.00in /  0mm
21:59 28.9 °F /  -1.7 °C 27.9 °F /  -2.3 °C 23.34in /  790.3hPa NNW 7.8mph /  12.6km/h -999.0mph /  -1607.7km/h 96% 0.00in /  0mm
22:14 28.8 °F /  -1.8 °C 27.5 °F /  -2.5 °C 23.34in /  790.3hPa SE 4.2mph /  6.8km/h -999.0mph /  -1607.7km/h 95% 0.00in /  0mm
22:30 28.4 °F /  -2 °C 27.4 °F /  -2.6 °C 23.34in /  790.3hPa SSW 7.8mph /  12.6km/h -999.0mph /  -1607.7km/h 96% 0.00in /  0mm
22:45 27.7 °F /  -2.4 °C 26.2 °F /  -3.2 °C 23.34in /  790.3hPa WNW 9.9mph /  15.9km/h -999.0mph /  -1607.7km/h 94% 0.00in /  0mm
23:00 27.1 °F /  -2.7 °C 26.1 °F /  -3.3 °C 23.35in /  790.6hPa NNW 8.3mph /  13.4km/h -999.0mph /  -1607.7km/h 96% 0.00in /  0mm
23:16 26.8 °F /  -2.9 °C 25.6 °F /  -3.6 °C 23.35in /  790.6hPa West 6.3mph /  10.1km/h -999.0mph /  -1607.7km/h 95% 0.00in /  0mm
23:31 27.0 °F /  -2.8 °C 26.0 °F /  -3.3 °C 23.34in /  790.3hPa SSE 2.7mph /  4.3km/h -999.0mph /  -1607.7km/h 96% 0.00in /  0mm
23:46 27.0 °F /  -2.8 °C 26.0 °F /  -3.3 °C 23.34in /  790.3hPa WSW 4.7mph /  7.6km/h -999.0mph /  -1607.7km/h 96% 0.00in /  0mm
Big Bear CA Weather